Time;durP1;ratioP1;P1;durP2;ratioP2;P2;SDS_P1;SDS_P2;PMS_P1;PMS_P2;Temp;Humidity;BMP_temperature;BMP_pressure;BME280_temperature;BME280_humidity;BME280_pressure;Samples;Min_cycle;Max_cycle;Signal;HPM_P1;HPM_P2
2022/06/24 00:08:51;;;;;;;4.28;3.22;;;;;;;22.69;38.84;100235.03;20791981;27;101249;-78
2022/06/24 00:19:08;;;;;;;11.07;3.92;;;;;;;22.59;39.44;100234.13;20790081;27;100885;-79
2022/06/24 00:29:09;;;;;;;7.55;3.88;;;;;;;22.48;40.16;100244.78;20806455;27;98067;-79
2022/06/24 00:39:09;;;;;;;7.03;3.50;;;;;;;22.30;40.27;100245.38;20775627;27;99944;-77
2022/06/24 00:49:13;;;;;;;4.53;2.80;;;;;;;22.20;40.98;100241.81;20805029;27;99884;-79
2022/06/24 00:59:15;;;;;;;5.50;3.47;;;;;;;22.11;41.30;100240.78;20801881;27;97109;-79
2022/06/24 01:09:19;;;;;;;9.18;3.47;;;;;;;22.03;41.53;100233.53;20766558;27;101375;-78
2022/06/24 01:19:20;;;;;;;9.43;3.60;;;;;;;21.96;41.87;100228.88;20778725;27;99098;-78
2022/06/24 01:29:21;;;;;;;6.05;3.30;;;;;;;22.45;40.80;100230.06;20779570;27;97061;-78
2022/06/24 01:39:22;;;;;;;5.57;2.60;;;;;;;22.00;41.21;100225.03;20793131;27;98254;-79
2022/06/24 01:49:22;;;;;;;5.65;2.25;;;;;;;21.64;41.23;100217.44;20807333;27;98452;-79
2022/06/24 01:59:23;;;;;;;6.07;2.22;;;;;;;21.57;41.61;100230.25;20810255;27;101416;-79
2022/06/24 02:09:23;;;;;;;4.60;2.17;;;;;;;21.46;41.83;100226.78;20778203;27;98566;-78
2022/06/24 02:19:24;;;;;;;3.33;2.30;;;;;;;21.44;41.73;100216.38;20790385;27;97294;-77
2022/06/24 02:29:24;;;;;;;6.55;2.53;;;;;;;21.30;42.10;100222.75;20809248;27;98827;-78
2022/06/24 02:39:25;;;;;;;4.50;2.50;;;;;;;21.17;43.06;100220.25;20802366;27;99417;-78
2022/06/24 02:49:25;;;;;;;4.78;2.38;;;;;;;21.14;43.21;100227.56;20791424;27;101472;-78
2022/06/24 02:59:26;;;;;;;4.50;2.13;;;;;;;21.07;43.44;100225.44;20806866;27;99167;-78
2022/06/24 03:09:26;;;;;;;8.90;2.40;;;;;;;21.15;43.74;100227.44;20793313;27;99402;-78
2022/06/24 03:19:27;;;;;;;4.13;2.42;;;;;;;20.93;44.01;100226.53;20804313;27;99133;-78
2022/06/24 03:29:27;;;;;;;4.63;2.40;;;;;;;20.88;44.15;100233.13;20817964;27;100684;-78
2022/06/24 03:39:28;;;;;;;4.80;2.42;;;;;;;20.91;44.00;100238.13;20810110;27;99888;-77
2022/06/24 03:49:29;;;;;;;3.63;2.30;;;;;;;20.92;43.88;100231.91;20825928;27;99356;-78
2022/06/24 03:59:29;;;;;;;5.75;2.20;;;;;;;21.17;42.92;100236.06;20804320;27;98071;-78
2022/06/24 04:09:30;;;;;;;6.97;2.30;;;;;;;21.19;43.01;100254.38;20818654;27;98641;-78
2022/06/24 04:19:30;;;;;;;6.00;2.40;;;;;;;21.24;42.42;100249.59;20798424;27;98467;-78
2022/06/24 04:29:32;;;;;;;8.57;2.22;;;;;;;21.59;41.32;100252.03;20828658;27;99982;-81
2022/06/24 04:39:32;;;;;;;6.07;2.60;;;;;;;21.62;41.56;100243.06;20831668;27;98240;-78
2022/06/24 04:49:33;;;;;;;7.93;2.55;;;;;;;;;;20826963;27;98284;-79
2022/06/24 04:59:34;;;;;;;6.80;2.28;;;;;;;21.74;40.32;100262.31;20815214;27;97491;-81
2022/06/24 05:09:35;;;;;;;3.65;2.33;;;;;;;22.13;40.12;100251.19;20833727;27;97791;-86
2022/06/24 05:19:35;;;;;;;7.25;2.30;;;;;;;22.27;39.97;100263.25;20834627;27;98137;-82
2022/06/24 05:29:37;;;;;;;6.93;2.03;;;;;;;22.52;39.07;100268.16;20814526;27;97203;-84
2022/06/24 05:39:38;;;;;;;5.53;2.00;;;;;;;22.63;39.18;100261.09;20833108;27;98730;-82
2022/06/24 05:49:39;;;;;;;4.05;1.90;;;;;;;22.61;38.34;100285.00;20851557;27;98340;-82
2022/06/24 05:59:40;;;;;;;6.90;1.70;;;;;;;22.86;37.47;100274.97;20822665;27;97068;-82
2022/06/24 06:09:41;;;;;;;1.88;1.63;;;;;;;23.12;37.33;100269.22;20841705;27;97844;-84
2022/06/24 06:19:41;;;;;;;4.30;2.00;;;;;;;23.17;36.60;100272.34;20846597;27;100024;-84
2022/06/24 06:29:42;;;;;;;2.67;1.70;;;;;;;23.32;36.03;100272.78;20824773;27;100157;-82
2022/06/24 06:39:42;;;;;;;4.28;2.03;;;;;;;23.48;35.59;100265.16;20818402;27;102249;-83
2022/06/24 06:49:44;;;;;;;2.28;1.83;;;;;;;23.56;35.17;100256.56;20811526;27;97878;-83
2022/06/24 06:59:49;;;;;;;3.73;1.70;;;;;;;23.77;35.82;100251.13;20854741;27;96954;-82
2022/06/24 07:09:51;;;;;;;4.10;1.70;;;;;;;23.92;35.06;100240.97;20847520;27;97509;-82
2022/06/24 07:19:51;;;;;;;3.35;1.90;;;;;;;24.04;34.53;100243.50;20796686;27;101013;-83
2022/06/24 07:29:52;;;;;;;5.25;1.65;;;;;;;24.15;35.29;100232.75;20779082;27;97221;-82
2022/06/24 07:39:52;;;;;;;2.78;1.63;;;;;;;24.26;34.19;100224.63;20762880;27;97536;-82
2022/06/24 07:49:53;;;;;;;2.78;1.63;;;;;;;24.41;34.54;100216.25;20763550;27;98224;-82
2022/06/24 07:59:53;;;;;;;13.13;2.40;;;;;;;24.53;33.51;100204.50;20787891;27;97335;-80
2022/06/24 08:09:54;;;;;;;10.38;1.90;;;;;;;24.64;33.72;100206.13;20762076;27;97490;-80
2022/06/24 08:19:55;;;;;;;3.35;1.92;;;;;;;24.70;33.67;100200.28;20778613;27;97165;-79
2022/06/24 08:29:57;;;;;;;3.35;1.65;;;;;;;24.81;33.58;100190.50;20783552;27;98828;-81
2022/06/24 08:39:57;;;;;;;6.82;1.80;;;;;;;24.88;33.52;100178.31;20768640;27;97170;-79
2022/06/24 08:49:58;;;;;;;7.07;1.90;;;;;;;24.98;32.56;100173.78;20776141;27;98830;-80
2022/06/24 08:59:59;;;;;;;2.95;1.85;;;;;;;25.06;33.15;100178.34;20765951;27;97861;-79
2022/06/24 09:10:04;;;;;;;8.17;2.47;;;;;;;25.16;33.95;100180.91;20766767;27;97143;-79
2022/06/24 09:20:13;;;;;;;3.70;1.63;;;;;;;25.29;31.43;100164.66;20812161;27;97486;-80
2022/06/24 09:30:16;;;;;;;3.75;1.70;;;;;;;25.33;32.01;100174.81;20839296;27;101300;-78
2022/06/24 09:40:29;;;;;;;3.72;1.70;;;;;;;25.39;32.28;100166.28;20865416;27;97989;-80
2022/06/24 09:50:30;;;;;;;3.80;1.70;;;;;;;25.43;31.82;100164.16;20860291;27;98557;-78
2022/06/24 10:00:40;;;;;;;4.53;1.80;;;;;;;25.51;31.96;100160.72;20848803;27;106477;-79
2022/06/24 10:10:47;;;;;;;3.17;1.70;;;;;;;25.59;31.97;100149.38;20846356;27;97383;-78
2022/06/24 10:20:50;;;;;;;2.83;1.85;;;;;;;25.68;31.60;100137.84;20870174;27;97898;-79
2022/06/24 10:30:56;;;;;;;1.88;1.70;;;;;;;25.77;31.25;100130.75;20879123;27;98288;-80
2022/06/24 10:40:57;;;;;;;2.90;1.70;;;;;;;25.84;31.67;100107.94;20873843;27;96939;-79
2022/06/24 10:51:15;;;;;;;2.53;1.73;;;;;;;25.96;30.75;100111.97;20852619;27;98140;-79
2022/06/24 11:01:16;;;;;;;4.57;1.70;;;;;;;26.00;30.72;100089.47;20874838;27;96960;-80
2022/06/24 11:11:29;;;;;;;2.87;1.60;;;;;;;26.05;30.88;100076.56;20850426;27;100675;-79
2022/06/24 11:21:30;;;;;;;1.52;1.40;;;;;;;26.10;31.01;100065.50;20824506;27;101356;-78
2022/06/24 11:31:33;;;;;;;5.00;1.70;;;;;;;26.15;30.71;100049.09;20829251;27;100462;-79
2022/06/24 11:41:36;;;;;;;1.88;1.40;;;;;;;26.20;30.78;100041.50;20857753;27;99581;-80
2022/06/24 11:51:37;;;;;;;3.67;1.70;;;;;;;26.22;30.81;100036.88;20844599;27;99467;-79
2022/06/24 12:01:38;;;;;;;9.00;1.70;;;;;;;26.30;31.51;100023.59;20849803;27;100601;-80
2022/06/24 12:11:42;;;;;;;;;;;;;;;26.56;30.25;100024.50;20819594;27;98453;-79
2022/06/24 12:21:43;;;;;;;38.75;7.82;;;;;;;26.78;32.53;100018.59;20816904;27;99443;-78
2022/06/24 12:31:50;;;;;;;18.50;4.70;;;;;;;26.99;31.51;99998.66;20822178;27;101444;-78
2022/06/24 12:41:50;;;;;;;13.70;3.55;;;;;;;27.15;31.39;99987.19;20818301;27;102023;-78
2022/06/24 12:51:51;;;;;;;6.57;2.40;;;;;;;27.30;30.32;99980.16;20805492;27;97074;-77
2022/06/24 13:01:51;;;;;;;3.03;1.92;;;;;;;27.44;29.27;99968.06;20814477;27;97482;-77
2022/06/24 13:11:53;;;;;;;2.08;1.75;;;;;;;27.46;28.96;99959.91;20791419;27;101443;-77
2022/06/24 13:21:54;;;;;;;3.63;1.60;;;;;;;27.53;28.73;99923.66;20733594;27;101107;-77
2022/06/24 13:31:55;;;;;;;4.45;1.83;;;;;;;27.64;28.52;99917.94;20739081;27;97330;-76
2022/06/24 13:41:56;;;;;;;2.45;1.75;;;;;;;27.68;28.49;99907.78;20724360;27;96918;-78
2022/06/24 13:51:57;;;;;;;2.85;1.95;;;;;;;27.74;28.70;99904.41;20717435;27;100717;-78
2022/06/24 14:01:57;;;;;;;2.53;1.80;;;;;;;27.76;29.23;99897.09;20728933;27;101408;-81
2022/06/24 14:11:58;;;;;;;2.08;1.70;;;;;;;27.79;29.36;99891.44;20752813;27;99361;-78
2022/06/24 14:21:58;;;;;;;;;;;;;;;27.80;29.74;99893.09;20723621;27;100784;-77
2022/06/24 14:31:59;;;;;;;3.53;1.70;;;;;;;27.79;29.75;99878.16;20753821;27;102178;-79
2022/06/24 14:42:01;;;;;;;5.03;2.00;;;;;;;27.85;29.43;99873.94;20743707;27;97254;-79
2022/06/24 14:52:03;;;;;;;3.63;1.75;;;;;;;27.98;28.69;99859.22;20729324;27;98097;-80
2022/06/24 15:02:04;;;;;;;3.95;1.45;;;;;;;28.09;29.05;99846.38;20732778;27;100672;-81
2022/06/24 15:12:04;;;;;;;;;;;;;;;28.18;28.37;99849.78;20742756;27;98918;-80
2022/06/24 15:22:07;;;;;;;5.03;1.52;;;;;;;28.22;29.28;99843.13;20807475;27;98312;-79
2022/06/24 15:32:08;;;;;;;4.32;1.67;;;;;;;28.25;30.07;99828.63;20807846;27;101237;-78
2022/06/24 15:42:08;;;;;;;6.47;1.60;;;;;;;28.21;29.79;99830.81;20805689;27;101550;-78
2022/06/24 15:52:09;;;;;;;6.57;1.60;;;;;;;28.22;30.25;99832.47;20794390;27;97784;-78
2022/06/24 16:02:10;;;;;;;4.75;1.70;;;;;;;28.18;29.80;99811.72;20790528;27;98498;-79
2022/06/24 16:12:30;;;;;;;;;;;;;;;28.19;29.63;99800.88;20816747;27;97784;-77
2022/06/24 16:22:31;;;;;;;7.37;1.70;;;;;;;28.16;30.21;99784.44;20808372;27;97930;-79
2022/06/24 16:32:32;;;;;;;4.60;1.58;;;;;;;28.12;30.48;99781.31;20796650;27;99228;-79
2022/06/24 16:42:33;;;;;;;3.17;1.40;;;;;;;28.08;29.50;99780.03;20810951;27;97779;-78
2022/06/24 16:52:33;;;;;;;3.20;1.50;;;;;;;28.06;29.45;99787.34;20792867;27;98595;-77
2022/06/24 17:02:34;;;;;;;16.15;1.70;;;;;;;28.06;30.11;99806.81;20788749;27;99941;-77
2022/06/24 17:12:34;;;;;;;3.22;1.58;;;;;;;28.10;29.36;99818.75;20789157;27;98484;-79
2022/06/24 17:22:35;;;;;;;8.68;2.35;;;;;;;28.20;28.38;99813.19;20806305;27;96995;-77
2022/06/24 17:32:36;;;;;;;4.13;2.30;;;;;;;28.22;27.57;99807.66;20793781;27;98075;-77
2022/06/24 17:42:36;;;;;;;;;;;;;;;28.21;27.80;99830.81;20787580;27;101754;-78
2022/06/24 17:52:37;;;;;;;4.75;2.00;;;;;;;28.17;27.74;99805.53;20808162;27;101081;-79
2022/06/24 18:02:38;;;;;;;7.55;2.38;;;;;;;28.10;27.83;99800.13;20792661;27;98179;-79
2022/06/24 18:12:39;;;;;;;5.57;1.80;;;;;;;28.04;28.12;99798.16;20812097;27;100820;-77
2022/06/24 18:22:40;;;;;;;3.05;2.22;;;;;;;27.99;28.50;99779.22;20802163;27;101892;-78
2022/06/24 18:32:41;;;;;;;5.47;2.33;;;;;;;27.91;29.03;99779.28;20797066;27;97046;-79
2022/06/24 18:42:44;;;;;;;5.25;2.25;;;;;;;27.86;29.02;99785.13;20790566;27;97070;-79
2022/06/24 18:52:44;;;;;;;4.20;2.25;;;;;;;27.84;29.97;99784.47;20811454;27;97989;-78
2022/06/24 19:02:45;;;;;;;4.78;2.55;;;;;;;27.82;30.06;99788.31;20807196;27;98513;-78
2022/06/24 19:12:45;;;;;;;5.65;2.05;;;;;;;27.83;29.78;99782.00;20802482;27;98487;-77
2022/06/24 19:22:47;;;;;;;3.10;2.05;;;;;;;27.79;29.20;99765.56;20791807;27;97181;-76
2022/06/24 19:32:48;;;;;;;2.58;1.60;;;;;;;27.75;28.70;99764.28;20801081;27;98069;-78
2022/06/24 19:42:49;;;;;;;12.13;1.80;;;;;;;27.70;28.88;99769.31;20776821;27;100594;-77
2022/06/24 19:52:49;;;;;;;3.60;2.00;;;;;;;27.58;27.99;99793.63;20807458;27;97583;-77
2022/06/24 20:13:12;;;;;;;2.63;1.80;;;;;;;27.37;28.07;99838.59;20831486;27;97251;-78
2022/06/24 20:23:16;;;;;;;3.63;2.28;;;;;;;27.28;28.16;99835.13;20754868;27;100363;-79
2022/06/24 20:33:17;;;;;;;9.65;2.58;;;;;;;27.26;28.71;99813.25;20742806;27;101012;-79
2022/06/24 20:43:17;;;;;;;3.85;2.28;;;;;;;27.15;28.42;99822.41;20748262;27;100500;-79
2022/06/24 20:53:18;;;;;;;7.73;2.70;;;;;;;26.98;28.81;99830.44;20751243;27;97697;-79
2022/06/24 21:03:18;;;;;;;5.32;2.72;;;;;;;26.86;28.86;99821.19;20748776;27;100741;-79
2022/06/24 21:13:19;;;;;;;4.72;3.40;;;;;;;26.76;29.12;99823.19;20735641;27;97291;-78
2022/06/24 21:23:19;;;;;;;4.45;2.70;;;;;;;26.64;29.23;99833.31;20769646;27;100329;-80
2022/06/24 21:33:20;;;;;;;4.13;2.20;;;;;;;26.53;28.96;99851.22;20747390;27;99647;-79
2022/06/24 21:43:21;;;;;;;2.20;1.83;;;;;;;26.35;29.20;99851.44;20749844;27;100850;-80
2022/06/24 21:53:22;;;;;;;;;;;;;;;26.19;29.24;99852.22;20749901;27;98264;-79
2022/06/24 22:03:23;;;;;;;3.65;1.70;;;;;;;26.10;29.90;99839.13;20746071;27;102183;-79
2022/06/24 22:13:23;;;;;;;7.07;1.90;;;;;;;26.10;29.65;99841.78;20727714;27;102262;-78
2022/06/24 22:23:25;;;;;;;2.20;1.65;;;;;;;25.89;30.28;99843.06;20751341;27;102200;-79
2022/06/24 22:33:25;;;;;;;;;;;;;;;25.85;30.02;99831.13;20774303;27;98378;-78
2022/06/24 22:43:26;;;;;;;2.83;1.40;;;;;;;25.75;29.88;99833.91;20812418;27;97733;-78
2022/06/24 22:53:27;;;;;;;5.68;2.03;;;;;;;25.72;30.24;99840.38;20790399;27;98464;-77
2022/06/24 23:03:27;;;;;;;2.33;1.50;;;;;;;25.67;30.49;99834.72;20781776;27;98129;-78
2022/06/24 23:13:28;;;;;;;2.07;1.50;;;;;;;25.64;30.30;99840.34;20795843;27;99308;-77
2022/06/24 23:23:28;;;;;;;4.47;1.80;;;;;;;25.59;30.14;99836.53;20787267;27;97812;-77
2022/06/24 23:33:29;;;;;;;4.00;1.40;;;;;;;25.78;30.05;99838.06;20794923;27;99095;-80
2022/06/24 23:43:29;;;;;;;2.40;1.20;;;;;;;25.76;30.44;99824.97;20825484;27;101629;-79
2022/06/24 23:53:30;;;;;;;3.95;1.60;;;;;;;25.82;30.04;99813.72;20811539;27;97624;-79
